createdAt,value
2019-01-19T00:02:03.890Z,101251.00
2019-01-19T00:05:17.661Z,101258.00
2019-01-19T00:08:12.145Z,101259.00
2019-01-19T00:11:19.083Z,101260.00
2019-01-19T00:14:07.531Z,101259.00
2019-01-19T00:17:14.773Z,101256.00
2019-01-19T00:20:22.943Z,101267.00
2019-01-19T00:23:33.672Z,101253.00
2019-01-19T00:26:40.817Z,101257.00
2019-01-19T00:29:20.940Z,101259.00
2019-01-19T00:32:00.711Z,101251.00
2019-01-19T00:35:30.455Z,101251.00
2019-01-19T00:38:15.503Z,101255.00
2019-01-19T00:41:22.438Z,101255.00
2019-01-19T00:44:08.406Z,101257.00
2019-01-19T00:47:22.740Z,101252.00
2019-01-19T00:50:10.944Z,101256.00
2019-01-19T00:53:08.344Z,101257.00
2019-01-19T00:56:12.306Z,101246.00
2019-01-19T00:58:55.890Z,101251.00
2019-01-19T01:01:45.853Z,101249.00
2019-01-19T01:04:45.011Z,101252.00
2019-01-19T01:07:56.345Z,101248.00
2019-01-19T01:10:39.781Z,101242.00
2019-01-19T01:13:22.588Z,101244.00
2019-01-19T01:16:17.087Z,101248.00
2019-01-19T01:19:33.852Z,101233.00
2019-01-19T01:22:31.166Z,101232.00
2019-01-19T01:25:32.372Z,101234.00
2019-01-19T01:28:14.094Z,101226.00
2019-01-19T01:31:40.291Z,101226.00
2019-01-19T01:35:09.516Z,101222.00
2019-01-19T01:38:06.668Z,101226.00
2019-01-19T01:41:17.122Z,101238.00
2019-01-19T01:44:16.229Z,101233.00
2019-01-19T01:47:22.571Z,101226.00
2019-01-19T01:50:19.837Z,101228.00
2019-01-19T01:53:39.513Z,101226.00
2019-01-19T01:56:13.771Z,101229.00
2019-01-19T01:59:26.898Z,101224.00
2019-01-19T02:02:22.343Z,101223.00
2019-01-19T02:05:16.910Z,101226.00
2019-01-19T02:08:17.928Z,101225.00
2019-01-19T02:10:57.925Z,101221.00
2019-01-19T02:14:20.215Z,101220.00
2019-01-19T02:17:17.965Z,101227.00
2019-01-19T02:20:24.105Z,101218.00
2019-01-19T02:23:38.472Z,101231.00
2019-01-19T02:26:52.549Z,101221.00
2019-01-19T02:29:52.029Z,101218.00
2019-01-19T02:32:47.581Z,101220.00
2019-01-19T02:36:01.793Z,101214.00
2019-01-19T02:38:57.715Z,101218.00
2019-01-19T02:42:09.117Z,101210.00
2019-01-19T02:45:03.351Z,101198.00
2019-01-19T02:48:10.648Z,101203.00
2019-01-19T02:51:08.828Z,101212.00
2019-01-19T02:54:23.874Z,101194.00
2019-01-19T02:57:38.430Z,101202.00
2019-01-19T03:00:52.366Z,101195.00
2019-01-19T03:04:01.842Z,101199.00
2019-01-19T03:06:56.367Z,101188.00
2019-01-19T03:10:03.668Z,101199.00
2019-01-19T03:13:11.430Z,101194.00
2019-01-19T03:16:22.807Z,101191.00
2019-01-19T03:19:17.702Z,101193.00
2019-01-19T03:22:08.378Z,101192.00
2019-01-19T03:25:07.119Z,101184.00
2019-01-19T03:28:05.610Z,101193.00
2019-01-19T03:30:54.313Z,101187.00
2019-01-19T03:34:06.119Z,101188.00
2019-01-19T03:37:19.869Z,101180.00
2019-01-19T03:40:15.262Z,101190.00
2019-01-19T03:43:20.103Z,101190.00
2019-01-19T03:46:39.588Z,101200.00
2019-01-19T03:49:37.616Z,101190.00
2019-01-19T03:52:48.674Z,101180.00
2019-01-19T03:55:51.887Z,101192.00
2019-01-19T03:58:46.938Z,101187.00
2019-01-19T04:01:45.484Z,101195.00
2019-01-19T04:04:55.454Z,101189.00
2019-01-19T04:07:44.572Z,101171.00
2019-01-19T04:10:33.603Z,101190.00
2019-01-19T04:13:44.002Z,101164.00
2019-01-19T04:16:47.409Z,101177.00
2019-01-19T04:19:28.999Z,101181.00
2019-01-19T04:22:21.171Z,101187.00
2019-01-19T04:25:09.091Z,101174.00
2019-01-19T04:27:39.246Z,101183.00
2019-01-19T04:30:11.989Z,101177.00
2019-01-19T04:32:42.038Z,101176.00
2019-01-19T04:35:12.250Z,101178.00
2019-01-19T04:37:42.364Z,101186.00
2019-01-19T04:40:13.808Z,101184.00
2019-01-19T04:42:45.564Z,101183.00
2019-01-19T04:45:15.963Z,101187.00
2019-01-19T04:47:46.191Z,101179.00
2019-01-19T04:50:16.899Z,101183.00
2019-01-19T04:52:47.129Z,101178.00
2019-01-19T04:55:17.270Z,101175.00
2019-01-19T04:57:47.417Z,101178.00
2019-01-19T05:00:19.003Z,101175.00
2019-01-19T05:02:49.162Z,101178.00
2019-01-19T05:05:19.743Z,101181.00
2019-01-19T05:07:50.015Z,101165.00
2019-01-19T05:10:20.173Z,101174.00
2019-01-19T05:12:50.427Z,101180.00
2019-01-19T05:15:21.884Z,101183.00
2019-01-19T05:17:52.373Z,101179.00
2019-01-19T05:20:22.862Z,101177.00
2019-01-19T05:22:52.979Z,101166.00
2019-01-19T05:25:23.233Z,101165.00
2019-01-19T05:27:53.414Z,101161.00
2019-01-19T05:30:23.658Z,101166.00
2019-01-19T05:32:53.900Z,101166.00
2019-01-19T05:35:24.225Z,101164.00
2019-01-19T05:37:54.570Z,101180.00
2019-01-19T05:40:24.660Z,101166.00
2019-01-19T05:42:54.913Z,101166.00
2019-01-19T05:45:25.457Z,101159.00
2019-01-19T05:47:55.845Z,101167.00
2019-01-19T05:50:26.006Z,101167.00
2019-01-19T05:52:56.171Z,101164.00
2019-01-19T05:55:26.353Z,101167.00
2019-01-19T05:57:56.541Z,101178.00
2019-01-19T06:00:35.035Z,101167.00
2019-01-19T06:03:06.708Z,101164.00
2019-01-19T06:05:38.522Z,101177.00
2019-01-19T06:08:08.586Z,101164.00
2019-01-19T06:10:38.721Z,101168.00
2019-01-19T06:13:08.832Z,101169.00
2019-01-19T06:15:39.000Z,101166.00
2019-01-19T06:18:09.252Z,101177.00
2019-01-19T06:20:39.455Z,101169.00
2019-01-19T06:23:09.639Z,101168.00
2019-01-19T06:25:39.824Z,101168.00
2019-01-19T06:28:10.055Z,101185.00
2019-01-19T06:30:40.215Z,101169.00
2019-01-19T06:33:10.397Z,101177.00
2019-01-19T06:35:40.552Z,101173.00
2019-01-19T06:38:10.734Z,101166.00
2019-01-19T06:40:40.908Z,101171.00
2019-01-19T06:43:11.003Z,101169.00
2019-01-19T06:45:41.197Z,101170.00
2019-01-19T06:48:11.615Z,101172.00
2019-01-19T06:50:41.781Z,101188.00
2019-01-19T06:53:11.967Z,101176.00
2019-01-19T06:55:42.151Z,101189.00
2019-01-19T06:58:12.409Z,101186.00
2019-01-19T07:00:42.521Z,101188.00
2019-01-19T07:03:12.791Z,101183.00
2019-01-19T07:05:43.274Z,101178.00
2019-01-19T07:08:13.645Z,101197.00
2019-01-19T07:10:44.294Z,101189.00
2019-01-19T07:13:15.029Z,101197.00
2019-01-19T07:15:45.911Z,101192.00
2019-01-19T07:18:16.905Z,101194.00
2019-01-19T07:20:48.145Z,101192.00
2019-01-19T07:23:19.281Z,101199.00
2019-01-19T07:25:50.748Z,101199.00
2019-01-19T07:28:21.744Z,101188.00
2019-01-19T07:30:53.190Z,101195.00
2019-01-19T07:33:24.624Z,101204.00
2019-01-19T07:35:58.167Z,101204.00
2019-01-19T07:38:29.257Z,101195.00
2019-01-19T07:41:00.695Z,101202.00
2019-01-19T07:43:32.505Z,101207.00
2019-01-19T07:46:05.921Z,101200.00
2019-01-19T07:48:37.314Z,101201.00
2019-01-19T07:51:08.259Z,101206.00
2019-01-19T07:53:39.194Z,101201.00
2019-01-19T07:56:10.576Z,101195.00
2019-01-19T07:58:41.553Z,101202.00
2019-01-19T08:01:13.071Z,101203.00
2019-01-19T08:03:44.206Z,101207.00
2019-01-19T08:06:15.140Z,101216.00
2019-01-19T08:08:45.904Z,101203.00
2019-01-19T08:11:17.193Z,101215.00
2019-01-19T08:13:48.149Z,101213.00
2019-01-19T08:16:18.994Z,101203.00
2019-01-19T08:18:49.978Z,101208.00
2019-01-19T08:21:21.027Z,101209.00
2019-01-19T08:23:51.771Z,101209.00
2019-01-19T08:26:22.627Z,101203.00
2019-01-19T08:28:53.392Z,101206.00
2019-01-19T08:31:24.292Z,101207.00
2019-01-19T08:33:55.777Z,101222.00
2019-01-19T08:36:26.698Z,101214.00
2019-01-19T08:38:57.680Z,101220.00
2019-01-19T08:41:28.818Z,101212.00
2019-01-19T08:44:02.671Z,101219.00
2019-01-19T08:46:33.912Z,101204.00
2019-01-19T08:49:05.278Z,101210.00
2019-01-19T08:51:36.698Z,101206.00
2019-01-19T08:54:08.220Z,101202.00
2019-01-19T08:56:39.258Z,101209.00
2019-01-19T08:59:10.111Z,101206.00
2019-01-19T09:01:40.816Z,101210.00
2019-01-19T09:04:12.960Z,101198.00
2019-01-19T09:06:44.098Z,101207.00
2019-01-19T09:09:15.046Z,101217.00
2019-01-19T09:11:45.884Z,101203.00
2019-01-19T09:14:16.771Z,101199.00
2019-01-19T09:16:47.949Z,101198.00
2019-01-19T09:19:19.209Z,101192.00
2019-01-19T09:21:50.890Z,101200.00
2019-01-19T09:24:25.909Z,101189.00
2019-01-19T09:26:56.938Z,101198.00
2019-01-19T09:29:28.191Z,101193.00
2019-01-19T09:31:59.110Z,101193.00
2019-01-19T09:34:30.135Z,101199.00
2019-01-19T09:37:00.964Z,101192.00
2019-01-19T09:39:32.358Z,101205.00
2019-01-19T09:42:03.334Z,101196.00
2019-01-19T09:44:34.266Z,101183.00
2019-01-19T09:47:05.281Z,101191.00
2019-01-19T09:49:35.873Z,101186.00
2019-01-19T09:52:06.946Z,101191.00
2019-01-19T09:54:38.580Z,101191.00
2019-01-19T09:57:09.705Z,101192.00
2019-01-19T09:59:41.006Z,101192.00
2019-01-19T10:02:12.173Z,101192.00
2019-01-19T10:04:43.286Z,101189.00
2019-01-19T10:07:14.218Z,101180.00
2019-01-19T10:09:45.147Z,101197.00
2019-01-19T10:12:16.146Z,101178.00
2019-01-19T10:14:47.697Z,101191.00
2019-01-19T10:17:18.717Z,101191.00
2019-01-19T10:19:49.612Z,101181.00
2019-01-19T10:22:20.814Z,101181.00
2019-01-19T10:24:53.262Z,101181.00
2019-01-19T10:27:24.626Z,101176.00
2019-01-19T10:29:55.694Z,101175.00
2019-01-19T10:32:26.545Z,101188.00
2019-01-19T10:34:57.628Z,101176.00
2019-01-19T10:37:28.663Z,101167.00
2019-01-19T10:39:59.081Z,101178.00
2019-01-19T10:42:29.990Z,101179.00
2019-01-19T10:45:01.172Z,101172.00
2019-01-19T10:47:31.916Z,101169.00
2019-01-19T10:50:03.122Z,101168.00
2019-01-19T10:52:33.998Z,101166.00
2019-01-19T10:55:05.088Z,101165.00
2019-01-19T10:57:35.740Z,101168.00
2019-01-19T11:00:10.900Z,101163.00
2019-01-19T11:02:41.604Z,101162.00
2019-01-19T11:05:13.421Z,101164.00
2019-01-19T11:07:46.745Z,101164.00
2019-01-19T11:10:20.498Z,101152.00
2019-01-19T11:12:51.982Z,101149.00
2019-01-19T11:15:23.141Z,101144.00
2019-01-19T11:17:53.902Z,101149.00
2019-01-19T11:20:26.544Z,101142.00
2019-01-19T11:22:58.370Z,101156.00
2019-01-19T11:25:29.177Z,101142.00
2019-01-19T11:27:59.818Z,101133.00
2019-01-19T11:30:31.758Z,101124.00
2019-01-19T11:33:02.674Z,101127.00
2019-01-19T11:35:33.660Z,101125.00
2019-01-19T11:38:11.529Z,101126.00
2019-01-19T11:40:38.326Z,101117.00
2019-01-19T11:43:12.453Z,101113.00
2019-01-19T11:45:43.085Z,101111.00
2019-01-19T11:48:14.170Z,101120.00
2019-01-19T11:50:44.799Z,101112.00
2019-01-19T11:53:15.860Z,101114.00
2019-01-19T11:55:46.781Z,101113.00
2019-01-19T11:58:18.153Z,101115.00
2019-01-19T12:00:49.158Z,101110.00
2019-01-19T12:03:19.579Z,101112.00
2019-01-19T12:05:50.274Z,101106.00
2019-01-19T12:08:21.132Z,101106.00
2019-01-19T12:10:52.186Z,101103.00
2019-01-19T12:13:25.688Z,101108.00
2019-01-19T12:15:56.642Z,101101.00
2019-01-19T12:18:27.210Z,101111.00
2019-01-19T12:20:58.040Z,101108.00
2019-01-19T12:23:28.790Z,101089.00
2019-01-19T12:25:59.293Z,101095.00
2019-01-19T12:28:30.057Z,101091.00
2019-01-19T12:31:00.612Z,101084.00
2019-01-19T12:33:31.317Z,101089.00
2019-01-19T12:36:01.721Z,101089.00
2019-01-19T12:38:32.857Z,101081.00
2019-01-19T12:41:03.672Z,101081.00
2019-01-19T12:43:34.166Z,101074.00
2019-01-19T12:46:07.662Z,101086.00
2019-01-19T12:48:38.276Z,101074.00
2019-01-19T12:51:11.253Z,101074.00
2019-01-19T12:53:41.757Z,101069.00
2019-01-19T12:56:12.432Z,101082.00
2019-01-19T12:58:43.078Z,101071.00
2019-01-19T13:01:13.719Z,101068.00
2019-01-19T13:03:44.184Z,101071.00
2019-01-19T13:06:35.950Z,101062.00
2019-01-19T13:09:15.456Z,101063.00
2019-01-19T13:12:33.257Z,101059.00
2019-01-19T13:15:57.037Z,101056.00
2019-01-19T13:19:10.751Z,101053.00
2019-01-19T13:22:33.231Z,101055.00
2019-01-19T13:25:54.327Z,101050.00
2019-01-19T13:29:05.169Z,101045.00
2019-01-19T13:32:28.638Z,101041.00
2019-01-19T13:35:37.145Z,101044.00
2019-01-19T13:38:54.939Z,101040.00
2019-01-19T13:42:11.401Z,101035.00
2019-01-19T13:45:44.317Z,101033.00
2019-01-19T13:49:08.121Z,101037.00
2019-01-19T13:52:04.800Z,101037.00
2019-01-19T13:55:10.531Z,101038.00
2019-01-19T13:58:01.291Z,101038.00
2019-01-19T14:01:07.381Z,101040.00
2019-01-19T14:04:09.727Z,101038.00
2019-01-19T14:07:08.259Z,101036.00
2019-01-19T14:10:03.730Z,101022.00
2019-01-19T14:13:21.349Z,101029.00
2019-01-19T14:16:36.030Z,101026.00
2019-01-19T14:19:55.978Z,101014.00
2019-01-19T14:23:20.485Z,101013.00
2019-01-19T14:26:35.021Z,101014.00
2019-01-19T14:29:55.256Z,101015.00
2019-01-19T14:33:27.749Z,101001.00
2019-01-19T14:36:50.867Z,101005.00
2019-01-19T14:39:44.337Z,101014.00
2019-01-19T14:43:03.967Z,101006.00
2019-01-19T14:46:06.715Z,101004.00
2019-01-19T14:49:11.349Z,101003.00
2019-01-19T14:51:54.956Z,100999.00
2019-01-19T14:55:27.978Z,101000.00
2019-01-19T14:58:18.177Z,100999.00
2019-01-19T15:01:54.149Z,100995.00
2019-01-19T15:04:58.293Z,100989.00
2019-01-19T15:08:28.241Z,100989.00
2019-01-19T15:11:15.507Z,100992.00
2019-01-19T15:14:00.924Z,100996.00
2019-01-19T15:17:08.758Z,100987.00
2019-01-19T15:20:28.683Z,100982.00
2019-01-19T15:23:49.787Z,100982.00
2019-01-19T15:26:59.986Z,100988.00
2019-01-19T15:30:22.421Z,100985.00
2019-01-19T15:33:38.471Z,100975.00
2019-01-19T15:36:39.337Z,100981.00
2019-01-19T15:39:51.810Z,100973.00
2019-01-19T15:43:15.797Z,100970.00
2019-01-19T15:46:27.461Z,100973.00
2019-01-19T15:49:50.898Z,100979.00
2019-01-19T15:52:34.655Z,100975.00
2019-01-19T15:55:50.464Z,100981.00
2019-01-19T15:59:10.901Z,100974.00
2019-01-19T16:02:10.580Z,100969.00
2019-01-19T16:05:23.614Z,100969.00
2019-01-19T16:08:20.281Z,100977.00
2019-01-19T16:11:50.261Z,100980.00
2019-01-19T16:14:48.255Z,100974.00
2019-01-19T16:18:03.182Z,100964.00
2019-01-19T16:21:13.373Z,100972.00
2019-01-19T16:24:27.276Z,100965.00
2019-01-19T16:27:37.877Z,100967.00
2019-01-19T16:30:40.751Z,100964.00
2019-01-19T16:33:47.004Z,100963.00
2019-01-19T16:37:10.668Z,100964.00
2019-01-19T16:40:28.897Z,100956.00
2019-01-19T16:43:45.440Z,100954.00
2019-01-19T16:47:04.426Z,100959.00
2019-01-19T16:50:09.034Z,100956.00
2019-01-19T16:53:24.359Z,100949.00
2019-01-19T16:56:45.014Z,100958.00
2019-01-19T16:59:46.232Z,100951.00
2019-01-19T17:03:05.182Z,100949.00
2019-01-19T17:06:09.201Z,100947.00
2019-01-19T17:09:10.199Z,100943.00
2019-01-19T17:12:03.012Z,100944.00
2019-01-19T17:15:16.607Z,100939.00
2019-01-19T17:18:23.848Z,100936.00
2019-01-19T17:21:35.190Z,100935.00
2019-01-19T17:25:10.832Z,100934.00
2019-01-19T17:28:10.255Z,100940.00
2019-01-19T17:31:35.739Z,100931.00
2019-01-19T17:34:42.552Z,100936.00
2019-01-19T17:37:37.366Z,100933.00
2019-01-19T17:40:54.598Z,100934.00
2019-01-19T17:43:37.450Z,100937.00
2019-01-19T17:46:51.715Z,100931.00
2019-01-19T17:50:02.884Z,100926.00
2019-01-19T17:52:54.072Z,100936.00
2019-01-19T17:55:37.386Z,100921.00
2019-01-19T17:58:32.873Z,100925.00
2019-01-19T18:01:49.205Z,100932.00
2019-01-19T18:04:50.536Z,100926.00
2019-01-19T18:08:05.856Z,100917.00
2019-01-19T18:11:25.045Z,100925.00
2019-01-19T18:14:05.556Z,100916.00
2019-01-19T18:17:29.413Z,100924.00
2019-01-19T18:20:52.676Z,100932.00
2019-01-19T18:24:05.409Z,100931.00
2019-01-19T18:26:44.401Z,100943.00
2019-01-19T18:30:01.461Z,100928.00
2019-01-19T18:32:56.091Z,100935.00
2019-01-19T18:35:53.638Z,100929.00
2019-01-19T18:38:57.014Z,100937.00
2019-01-19T18:41:57.048Z,100929.00
2019-01-19T18:45:05.465Z,100928.00
2019-01-19T18:47:47.869Z,100935.00
2019-01-19T18:51:11.088Z,100933.00
2019-01-19T18:54:18.036Z,100926.00
2019-01-19T18:57:31.484Z,100913.00
2019-01-19T19:00:13.188Z,100920.00
2019-01-19T19:03:09.193Z,100923.00
2019-01-19T19:06:21.505Z,100921.00
2019-01-19T19:09:13.505Z,100925.00
2019-01-19T19:12:08.280Z,100922.00
2019-01-19T19:15:04.323Z,100924.00
2019-01-19T19:18:22.211Z,100930.00
2019-01-19T19:21:30.700Z,100936.00
2019-01-19T19:24:40.397Z,100928.00
2019-01-19T19:27:37.295Z,100936.00
2019-01-19T19:30:51.435Z,100927.00
2019-01-19T19:33:37.613Z,100937.00
2019-01-19T19:36:47.887Z,100931.00
2019-01-19T19:39:39.903Z,100932.00
2019-01-19T19:42:50.360Z,100926.00
2019-01-19T19:46:19.667Z,100928.00
2019-01-19T19:49:26.898Z,100937.00
2019-01-19T19:51:58.622Z,100928.00
2019-01-19T19:54:30.395Z,100930.00
2019-01-19T19:57:01.217Z,100921.00
2019-01-19T19:59:31.468Z,100917.00
2019-01-19T20:02:02.862Z,100912.00
2019-01-19T20:04:33.227Z,100922.00
2019-01-19T20:07:03.429Z,100924.00
2019-01-19T20:09:36.831Z,100924.00
2019-01-19T20:12:09.585Z,100934.00
2019-01-19T20:14:39.863Z,100920.00
2019-01-19T20:17:10.641Z,100930.00
2019-01-19T20:19:43.833Z,100926.00
2019-01-19T20:22:14.093Z,100921.00
2019-01-19T20:24:44.349Z,100916.00
2019-01-19T20:27:14.802Z,100916.00
2019-01-19T20:29:45.023Z,100918.00
2019-01-19T20:32:20.016Z,100919.00
2019-01-19T20:34:50.595Z,100922.00
2019-01-19T20:37:24.858Z,100926.00
2019-01-19T20:39:54.070Z,100920.00
2019-01-19T20:42:25.075Z,100922.00
2019-01-19T20:44:55.288Z,100924.00
2019-01-19T20:47:25.567Z,100922.00
2019-01-19T20:49:55.805Z,100925.00
2019-01-19T20:52:29.389Z,100920.00
2019-01-19T20:55:02.215Z,100922.00
2019-01-19T20:57:32.336Z,100926.00
2019-01-19T21:00:02.801Z,100941.00
2019-01-19T21:02:33.132Z,100929.00
2019-01-19T21:05:03.368Z,100925.00
2019-01-19T21:07:33.543Z,100926.00
2019-01-19T21:10:04.305Z,100923.00
2019-01-19T21:12:34.557Z,100927.00
2019-01-19T21:15:06.639Z,100931.00
2019-01-19T21:17:36.929Z,100925.00
2019-01-19T21:20:09.112Z,100925.00
2019-01-19T21:22:39.476Z,100930.00
2019-01-19T21:25:10.889Z,100939.00
2019-01-19T21:27:41.187Z,100926.00
2019-01-19T21:30:12.041Z,100930.00
2019-01-19T21:32:42.309Z,100929.00
2019-01-19T21:35:12.690Z,100935.00
2019-01-19T21:37:42.984Z,100926.00
2019-01-19T21:40:13.814Z,100935.00
2019-01-19T21:42:43.927Z,100930.00
2019-01-19T21:45:16.819Z,100927.00
2019-01-19T21:47:46.979Z,100929.00
2019-01-19T21:50:17.421Z,100921.00
2019-01-19T21:52:47.909Z,100932.00
2019-01-19T21:55:18.100Z,100934.00
2019-01-19T21:57:49.847Z,100923.00
2019-01-19T22:00:20.094Z,100929.00
2019-01-19T22:02:50.383Z,100928.00
2019-01-19T22:05:22.195Z,100920.00
2019-01-19T22:07:52.480Z,100922.00
2019-01-19T22:10:23.772Z,100922.00
2019-01-19T22:12:53.862Z,100920.00
2019-01-19T22:15:24.094Z,100923.00
2019-01-19T22:17:54.310Z,100917.00
2019-01-19T22:20:24.544Z,100919.00
2019-01-19T22:22:54.835Z,100910.00
2019-01-19T22:25:24.990Z,100911.00
2019-01-19T22:27:55.263Z,100909.00
2019-01-19T22:30:26.218Z,100915.00
2019-01-19T22:32:56.981Z,100909.00
2019-01-19T22:35:30.821Z,100914.00
2019-01-19T22:38:01.245Z,100911.00
2019-01-19T22:40:31.521Z,100906.00
2019-01-19T22:43:04.711Z,100905.00
2019-01-19T22:45:35.003Z,100911.00
2019-01-19T22:48:05.765Z,100911.00
2019-01-19T22:50:36.017Z,100918.00
2019-01-19T22:53:06.282Z,100910.00
2019-01-19T22:55:36.542Z,100914.00
2019-01-19T22:58:06.766Z,100915.00
2019-01-19T23:01:01.672Z,100919.00
2019-01-19T23:03:34.516Z,100902.00
2019-01-19T23:06:05.257Z,100908.00
2019-01-19T23:08:35.769Z,100903.00
2019-01-19T23:11:07.277Z,100906.00
2019-01-19T23:13:37.745Z,100911.00
2019-01-19T23:16:07.975Z,100907.00
2019-01-19T23:18:38.368Z,100902.00
2019-01-19T23:21:08.539Z,100898.00
2019-01-19T23:23:38.884Z,100903.00
2019-01-19T23:26:09.160Z,100900.00
2019-01-19T23:28:39.550Z,100903.00
2019-01-19T23:31:09.947Z,100892.00
2019-01-19T23:33:40.202Z,100887.00
2019-01-19T23:36:10.822Z,100889.00
2019-01-19T23:38:41.042Z,100893.00
2019-01-19T23:41:11.432Z,100887.00
2019-01-19T23:43:41.610Z,100889.00
2019-01-19T23:46:11.798Z,100893.00
2019-01-19T23:48:42.039Z,100890.00
2019-01-19T23:51:12.322Z,100889.00
2019-01-19T23:53:42.481Z,100894.00
2019-01-19T23:56:12.709Z,100893.00
2019-01-19T23:58:42.971Z,100889.00
